createdAt,value
2019-04-04T18:34:45.535Z,19.50
2019-04-04T18:37:16.278Z,19.60
2019-04-04T18:39:46.149Z,19.60
2019-04-04T18:42:16.369Z,19.60
2019-04-04T18:44:46.015Z,19.70
2019-04-04T18:47:15.668Z,19.70
2019-04-04T18:49:45.314Z,19.70
2019-04-04T18:52:14.963Z,19.80
2019-04-04T18:54:45.251Z,19.80
2019-04-04T18:57:14.912Z,19.90
2019-04-04T18:59:44.551Z,20.00
2019-04-04T19:02:14.208Z,19.90
2019-04-04T19:04:43.856Z,20.00
2019-04-04T19:07:14.807Z,20.00
2019-04-04T19:09:44.460Z,20.10
2019-04-04T19:12:14.677Z,20.10
2019-04-04T19:14:44.336Z,20.10
2019-04-04T19:17:14.267Z,20.20
2019-04-04T19:19:44.490Z,20.20
2019-04-04T19:22:14.805Z,20.20
2019-04-04T19:24:45.025Z,20.20
2019-04-04T19:27:14.673Z,20.20
2019-04-04T19:29:44.526Z,20.30
2019-04-04T19:32:14.268Z,20.30
2019-04-04T19:37:13.701Z,20.30
2019-04-04T19:39:43.376Z,20.30
2019-04-04T19:42:13.581Z,20.30
2019-04-04T19:44:52.691Z,20.30
2019-04-04T19:47:15.155Z,20.40
2019-04-04T19:49:44.876Z,20.40
2019-04-04T19:52:15.104Z,20.40
2019-04-04T19:54:45.324Z,20.40
2019-04-04T19:57:16.886Z,20.40
2019-04-04T19:59:47.187Z,20.40
2019-04-04T20:02:16.841Z,20.40
2019-04-04T20:04:47.059Z,20.40
2019-04-04T20:07:16.777Z,20.40
2019-04-04T20:09:46.636Z,20.40
2019-04-04T20:14:45.496Z,20.40
2019-04-04T20:17:15.153Z,20.40
2019-04-04T20:19:44.868Z,20.40
2019-04-04T20:22:15.088Z,20.40
2019-04-04T20:24:45.905Z,20.40
2019-04-04T20:27:15.561Z,20.40
2019-04-04T20:29:45.212Z,20.40
2019-04-04T20:32:14.919Z,20.40
2019-04-04T20:34:44.603Z,20.40
2019-04-04T20:37:14.248Z,20.40
2019-04-04T20:39:43.905Z,20.40
2019-04-04T20:42:14.325Z,20.40
2019-04-04T20:44:45.236Z,20.40
2019-04-04T20:47:14.883Z,20.40
2019-04-04T20:49:44.664Z,20.40
2019-04-04T20:52:14.321Z,20.30
2019-04-04T20:54:43.977Z,20.30
2019-04-04T20:57:13.628Z,20.30
2019-04-04T20:59:43.283Z,20.30
2019-04-04T21:02:13.495Z,20.30
2019-04-04T21:04:43.147Z,20.30
2019-04-04T21:27:09.383Z,20.40
2019-04-04T21:29:39.036Z,20.30
2019-04-04T21:32:08.696Z,20.20
2019-04-04T21:34:39.619Z,20.20
2019-04-04T21:42:07.699Z,20.20
2019-04-04T21:44:37.360Z,20.20
2019-04-04T21:47:07.023Z,20.10
2019-04-04T21:49:36.680Z,20.10
2019-04-04T21:52:06.335Z,20.10
2019-04-04T21:57:05.212Z,20.00
2019-04-04T21:59:34.864Z,20.00
2019-04-04T22:02:05.308Z,20.00
2019-04-04T22:04:35.032Z,20.00
2019-04-04T22:07:05.852Z,20.00
